Time;durP1;ratioP1;P1;durP2;ratioP2;P2;SDS_P1;SDS_P2;PMS_P1;PMS_P2;Temp;Humidity;BMP_temperature;BMP_pressure;BME280_temperature;BME280_humidity;BME280_pressure;Samples;Min_cycle;Max_cycle;Signal;HPM_P1;HPM_P2
2023/04/03 00:01:01;;;;;;;17.42;4.57;;;;;;;;;;5110090;28;20036;-78
2023/04/03 00:03:27;;;;;;;8.68;4.00;;;;;;;;;;5114018;28;20027;-75
2023/04/03 00:05:53;;;;;;;11.65;3.88;;;;;;;;;;5113849;28;20090;-77
2023/04/03 00:08:19;;;;;;;14.77;4.82;;;;;;;;;;5113732;28;20023;-73
2023/04/03 00:10:44;;;;;;;12.70;4.32;;;;;;;;;;5109612;28;20024;-77
2023/04/03 00:13:10;;;;;;;8.82;3.85;;;;;;;;;;5111262;28;20032;-77
2023/04/03 00:15:36;;;;;;;10.73;4.65;;;;;;;;;;5113045;27;20015;-79
2023/04/03 00:18:02;;;;;;;13.63;4.63;;;;;;;;;;5112977;28;20104;-76
2023/04/03 00:20:28;;;;;;;10.02;4.68;;;;;;;;;;5112987;28;20030;-76
2023/04/03 00:22:54;;;;;;;8.95;4.30;;;;;;;;;;5112480;28;20429;-73
2023/04/03 00:25:20;;;;;;;10.35;4.63;;;;;;;;;;5112627;27;20457;-75
2023/04/03 00:27:45;;;;;;;14.75;4.82;;;;;;;;;;5114453;27;20020;-77
2023/04/03 00:30:14;;;;;;;14.70;5.85;;;;;;;;;;5111335;28;20019;-79
2023/04/03 00:32:39;;;;;;;46.92;13.38;;;;;;;;;;5113020;28;20051;-79
2023/04/03 00:35:05;;;;;;;22.48;7.13;;;;;;;;;;5113549;28;20382;-71
2023/04/03 00:37:31;;;;;;;19.30;6.18;;;;;;;;;;5112953;28;20482;-74
2023/04/03 00:39:56;;;;;;;19.08;7.28;;;;;;;;;;5113289;28;20055;-73
2023/04/03 00:42:22;;;;;;;28.15;7.50;;;;;;;;;;5113189;28;20022;-76
2023/04/03 00:44:47;;;;;;;17.17;6.10;;;;;;;;;;5113206;28;20023;-78
2023/04/03 00:47:17;;;;;;;21.67;8.23;;;;;;;;;;5113381;28;20077;-79
2023/04/03 00:49:43;;;;;;;19.85;8.43;;;;;;;;;;5113163;28;20068;-78
2023/04/03 00:52:13;;;;;;;21.58;8.10;;;;;;;;;;5108997;28;20027;-74
2023/04/03 00:54:42;;;;;;;12.85;5.93;;;;;;;;;;5111860;28;20095;-64
2023/04/03 00:57:08;;;;;;;24.60;6.70;;;;;;;;;;5111667;28;20071;-71
2023/04/03 00:59:40;;;;;;;19.13;7.07;;;;;;;;;;5112144;28;20024;-68
2023/04/03 01:02:05;;;;;;;16.48;6.13;;;;;;;;;;5109985;28;20102;-66
2023/04/03 01:04:37;;;;;;;17.10;5.85;;;;;;;;;;5111787;28;20179;-68
2023/04/03 01:07:06;;;;;;;16.52;5.82;;;;;;;;;;5109430;28;20486;-75
2023/04/03 01:09:33;;;;;;;18.40;6.18;;;;;;;;;;5111998;28;20086;-78
2023/04/03 01:12:17;;;;;;;17.50;5.07;;;;;;;;;;5111767;28;20024;-76
2023/04/03 01:14:43;;;;;;;11.80;4.60;;;;;;;;;;5109372;28;20054;-78
2023/04/03 01:17:24;;;;;;;14.70;4.57;;;;;;;;;;5111794;28;20023;-78
2023/04/03 01:19:55;;;;;;;;;;;;;;;;;;5110825;28;20519;-76
2023/04/03 01:22:29;;;;;;;12.52;3.97;;;;;;;;;;5109695;28;19912;-74
2023/04/03 01:24:55;;;;;;;10.25;3.83;;;;;;;;;;5110789;28;20320;-75
2023/04/03 01:27:21;;;;;;;17.00;4.97;;;;;;;;;;5110716;28;20038;-77
2023/04/03 01:29:47;;;;;;;15.13;4.53;;;;;;;;;;5110694;28;20055;-79
2023/04/03 01:32:12;;;;;;;11.95;4.55;;;;;;;;;;5110688;28;20026;-79
2023/04/03 01:34:38;;;;;;;12.00;4.45;;;;;;;;;;5110276;28;20518;-77
2023/04/03 01:37:03;;;;;;;12.30;4.95;;;;;;;;;;5110634;28;20373;-74
2023/04/03 01:39:29;;;;;;;10.73;4.60;;;;;;;;;;5110582;28;20028;-73
2023/04/03 01:41:54;;;;;;;12.88;4.82;;;;;;;;;;5110598;28;20031;-74
2023/04/03 01:44:20;;;;;;;15.95;5.57;;;;;;;;;;5107742;28;20473;-68
2023/04/03 01:46:46;;;;;;;38.30;9.57;;;;;;;;;;5110538;28;20430;-70
2023/04/03 01:49:11;;;;;;;27.73;8.18;;;;;;;;;;5110081;28;20069;-74
2023/04/03 01:51:37;;;;;;;22.90;7.88;;;;;;;;;;5108864;28;20114;-72
2023/04/03 01:54:03;;;;;;;15.82;6.28;;;;;;;;;;5110306;28;20020;-72
2023/04/03 01:56:28;;;;;;;23.17;7.45;;;;;;;;;;5110449;28;20508;-76
2023/04/03 01:58:53;;;;;;;27.35;8.10;;;;;;;;;;5107683;28;20039;-77
2023/04/03 02:01:19;;;;;;;31.90;8.43;;;;;;;;;;5110365;28;20027;-75
2023/04/03 02:03:44;;;;;;;19.50;6.63;;;;;;;;;;5109799;28;20020;-77
2023/04/03 02:06:10;;;;;;;16.33;5.00;;;;;;;;;;5110037;28;20024;-65
2023/04/03 02:08:35;;;;;;;17.35;5.28;;;;;;;;;;5110194;28;20020;-68
2023/04/03 02:11:01;;;;;;;10.52;3.80;;;;;;;;;;5108911;28;20084;-76
2023/04/03 02:13:26;;;;;;;10.40;4.53;;;;;;;;;;5110144;28;20024;-73
2023/04/03 02:15:52;;;;;;;10.65;4.45;;;;;;;;;;5110192;28;20039;-66
2023/04/03 02:18:17;;;;;;;11.23;4.38;;;;;;;;;;5109699;28;20445;-68
2023/04/03 02:20:43;;;;;;;12.23;4.10;;;;;;;;;;5110084;28;20035;-72
2023/04/03 02:23:09;;;;;;;10.50;4.07;;;;;;;;;;5108798;28;20012;-70
2023/04/03 02:25:34;;;;;;;10.75;3.72;;;;;;;;;;5109884;28;20032;-65
2023/04/03 02:28:00;;;;;;;8.52;3.35;;;;;;;;;;5110144;28;20024;-77
2023/04/03 02:30:26;;;;;;;13.50;4.15;;;;;;;;;;5109953;28;20068;-77
2023/04/03 02:32:51;;;;;;;11.60;4.07;;;;;;;;;;5109699;28;20027;-77
2023/04/03 02:35:17;;;;;;;11.70;4.28;;;;;;;;;;5108572;28;20019;-76
2023/04/03 02:37:42;;;;;;;14.30;4.25;;;;;;;;;;5109814;28;20023;-78
2023/04/03 02:40:08;;;;;;;12.80;3.70;;;;;;;;;;5110005;28;20015;-78
2023/04/03 02:42:34;;;;;;;14.85;4.38;;;;;;;;;;5109625;28;20031;-68
2023/04/03 02:45:02;;;;;;;16.77;4.28;;;;;;;;;;5109662;28;20077;-70
2023/04/03 02:47:28;;;;;;;13.10;4.20;;;;;;;;;;5109629;28;20107;-78
2023/04/03 02:49:54;;;;;;;13.63;5.15;;;;;;;;;;5109907;28;20672;-71
2023/04/03 02:52:19;;;;;;;30.95;8.73;;;;;;;;;;5109697;28;20354;-74
2023/04/03 02:54:45;;;;;;;46.13;11.15;;;;;;;;;;5109753;28;20019;-77
2023/04/03 02:57:10;;;;;;;90.47;19.15;;;;;;;;;;5107116;28;20394;-77
2023/04/03 02:59:40;;;;;;;30.23;8.40;;;;;;;;;;5090243;28;20028;-73
2023/04/03 03:02:07;;;;;;;13.67;5.60;;;;;;;;;;5090074;28;20107;-68
2023/04/03 03:04:32;;;;;;;11.25;4.35;;;;;;;;;;5090095;28;20406;-77
2023/04/03 03:06:57;;;;;;;19.23;6.82;;;;;;;;;;5089886;28;20040;-75
2023/04/03 03:09:23;;;;;;;29.73;10.80;;;;;;;;;;5090291;28;20035;-76
2023/04/03 03:11:48;;;;;;;35.03;9.27;;;;;;;;;;5090333;28;20056;-74
2023/04/03 03:14:14;;;;;;;25.88;9.05;;;;;;;;;;5090262;28;20114;-75
2023/04/03 03:16:39;;;;;;;30.77;8.65;;;;;;;;;;5089866;28;20038;-68
2023/04/03 03:19:06;;;;;;;25.25;7.70;;;;;;;;;;5091938;28;20031;-70
2023/04/03 03:21:31;;;;;;;32.08;10.85;;;;;;;;;;5093926;28;20031;-75
2023/04/03 03:23:57;;;;;;;55.00;19.80;;;;;;;;;;5093574;28;20378;-76
2023/04/03 03:26:23;;;;;;;48.63;18.50;;;;;;;;;;5093584;28;20103;-76
2023/04/03 03:28:49;;;;;;;30.95;13.75;;;;;;;;;;5093565;28;20085;-63
2023/04/03 03:31:15;;;;;;;25.55;11.52;;;;;;;;;;5093511;28;20470;-73
2023/04/03 03:33:40;;;;;;;24.80;7.55;;;;;;;;;;5104904;28;20367;-71
2023/04/03 03:36:08;;;;;;;22.75;7.43;;;;;;;;;;5093954;28;20043;-72
2023/04/03 03:38:33;;;;;;;17.60;5.53;;;;;;;;;;5092780;28;20048;-69
2023/04/03 03:40:59;;;;;;;21.35;5.68;;;;;;;;;;5093031;28;20071;-68
2023/04/03 03:43:25;;;;;;;21.70;4.90;;;;;;;;;;5093304;28;20012;-76
2023/04/03 03:45:54;;;;;;;13.20;4.35;;;;;;;;;;5092977;28;20036;-64
2023/04/03 03:48:20;;;;;;;11.93;4.18;;;;;;;;;;5093348;28;20024;-71
2023/04/03 03:50:46;;;;;;;6.78;2.88;;;;;;;;;;5093340;28;20035;-71
2023/04/03 03:53:12;;;;;;;6.13;1.80;;;;;;;;;;5093255;28;20471;-66
2023/04/03 03:55:38;;;;;;;3.55;2.03;;;;;;;;;;5093305;28;20025;-76
2023/04/03 03:58:03;;;;;;;4.85;2.33;;;;;;;;;;5102255;28;20084;-68
2023/04/03 04:00:29;;;;;;;5.03;1.95;;;;;;;;;;5113211;28;20105;-69
2023/04/03 04:02:55;;;;;;;4.47;1.70;;;;;;;;;;5113236;28;20047;-77
2023/04/03 04:05:21;;;;;;;8.80;2.10;;;;;;;;;;5113238;28;20055;-74
2023/04/03 04:07:46;;;;;;;4.43;1.30;;;;;;;;;;5112809;28;20032;-66
2023/04/03 04:10:13;;;;;;;4.80;1.25;;;;;;;;;;5113401;28;20367;-74
2023/04/03 04:12:39;;;;;;;4.97;1.40;;;;;;;;;;5112794;28;20028;-72
2023/04/03 04:15:05;;;;;;;8.35;2.28;;;;;;;;;;5113227;28;20101;-70
2023/04/03 04:17:30;;;;;;;3.15;1.40;;;;;;;;;;5113224;28;20019;-77
2023/04/03 04:19:56;;;;;;;3.60;1.35;;;;;;;;;;5112878;28;20046;-77
2023/04/03 04:22:21;;;;;;;9.52;1.70;;;;;;;;;;5112882;28;20020;-75
2023/04/03 04:24:46;;;;;;;5.65;1.73;;;;;;;;;;5112974;28;20068;-70
2023/04/03 04:27:12;;;;;;;6.50;1.67;;;;;;;;;;5112812;28;20529;-71
2023/04/03 04:29:37;;;;;;;5.97;1.98;;;;;;;;;;5112465;28;20023;-71
2023/04/03 04:32:04;;;;;;;8.43;2.40;;;;;;;;;;5112929;28;20054;-73
2023/04/03 04:34:30;;;;;;;8.68;2.33;;;;;;;;;;5112550;28;20020;-64
2023/04/03 04:36:56;;;;;;;11.30;2.22;;;;;;;;;;5112609;28;20035;-68
2023/04/03 04:39:21;;;;;;;13.13;2.70;;;;;;;;;;5111566;28;20092;-76
2023/04/03 04:41:47;;;;;;;6.97;2.33;;;;;;;;;;5111075;28;20034;-75
2023/04/03 04:44:12;;;;;;;9.57;2.75;;;;;;;;;;5112375;28;20088;-77
2023/04/03 04:46:38;;;;;;;9.63;3.63;;;;;;;;;;5112401;28;20028;-74
2023/04/03 04:49:03;;;;;;;18.63;4.18;;;;;;;;;;5112509;28;20027;-70
2023/04/03 04:51:29;;;;;;;9.88;3.40;;;;;;;;;;5112521;28;20028;-78
2023/04/03 04:53:54;;;;;;;11.65;4.22;;;;;;;;;;5112564;28;20687;-77
2023/04/03 04:56:20;;;;;;;12.27;4.03;;;;;;;;;;5112379;28;20501;-78
2023/04/03 04:58:46;;;;;;;11.27;3.20;;;;;;;;;;5111962;28;20032;-74
2023/04/03 05:01:11;;;;;;;9.15;3.10;;;;;;;;;;5112397;28;20024;-78
2023/04/03 05:03:37;;;;;;;12.98;4.15;;;;;;;;;;5112157;28;20042;-78
2023/04/03 05:06:03;;;;;;;12.45;4.15;;;;;;;;;;5112057;28;20039;-78
2023/04/03 05:08:28;;;;;;;8.43;3.10;;;;;;;;;;5111982;28;20102;-76
2023/04/03 05:10:54;;;;;;;4.63;2.38;;;;;;;;;;5112354;28;20019;-78
2023/04/03 05:13:20;;;;;;;8.50;3.03;;;;;;;;;;5111768;28;20056;-78
2023/04/03 05:15:46;;;;;;;6.00;2.28;;;;;;;;;;5111859;28;20494;-77
2023/04/03 05:18:12;;;;;;;8.75;2.65;;;;;;;;;;5111860;28;20028;-77
2023/04/03 05:20:37;;;;;;;9.00;2.40;;;;;;;;;;5111940;28;20027;-77
2023/04/03 05:23:03;;;;;;;6.25;2.45;;;;;;;;;;5111878;28;20026;-72
2023/04/03 05:25:29;;;;;;;8.23;2.45;;;;;;;;;;5111961;28;20509;-74
2023/04/03 05:27:54;;;;;;;4.25;1.63;;;;;;;;;;5111597;28;20027;-78
2023/04/03 05:30:20;;;;;;;6.10;2.13;;;;;;;;;;5112036;28;20058;-70
2023/04/03 05:32:46;;;;;;;7.18;2.20;;;;;;;;;;5111718;28;20088;-77
2023/04/03 05:35:13;;;;;;;9.20;2.72;;;;;;;;;;5111700;28;20370;-74
2023/04/03 05:37:38;;;;;;;8.05;2.92;;;;;;;;;;5111611;28;20024;-77
2023/04/03 05:40:05;;;;;;;14.18;3.63;;;;;;;;;;5111548;28;20031;-77
2023/04/03 05:42:31;;;;;;;5.63;2.58;;;;;;;;;;5110841;28;20015;-75
2023/04/03 05:44:56;;;;;;;7.30;2.58;;;;;;;;;;5111728;28;20046;-78
2023/04/03 05:47:22;;;;;;;5.32;2.63;;;;;;;;;;5111447;28;20108;-76
2023/04/03 05:49:48;;;;;;;7.68;3.03;;;;;;;;;;5111659;28;20055;-72
2023/04/03 05:52:31;;;;;;;12.52;3.35;;;;;;;;;;5111472;28;20055;-77
2023/04/03 05:54:56;;;;;;;7.70;2.80;;;;;;;;;;5111237;28;20077;-77
2023/04/03 05:57:22;;;;;;;7.35;2.40;;;;;;;;;;5111059;28;20518;-76
2023/04/03 05:59:48;;;;;;;5.50;2.25;;;;;;;;;;5111466;28;20038;-77
2023/04/03 06:02:16;;;;;;;8.57;2.63;;;;;;;;;;5111197;28;20157;-74
2023/04/03 06:04:42;;;;;;;7.18;2.72;;;;;;;;;;5110821;28;20043;-78
2023/04/03 06:07:12;;;;;;;4.75;2.08;;;;;;;;;;5111363;28;20055;-77
2023/04/03 06:09:37;;;;;;;5.85;2.00;;;;;;;;;;5111435;28;20042;-73
2023/04/03 06:12:03;;;;;;;5.32;2.20;;;;;;;;;;5110980;28;20036;-67
2023/04/03 06:14:28;;;;;;;10.18;2.47;;;;;;;;;;5110839;28;20031;-74
2023/04/03 06:16:54;;;;;;;13.90;3.50;;;;;;;;;;5111250;28;20024;-68
2023/04/03 06:19:20;;;;;;;6.13;1.88;;;;;;;;;;5111561;28;20027;-70
2023/04/03 06:21:47;;;;;;;6.40;2.17;;;;;;;;;;5111285;28;20638;-70
2023/04/03 06:24:15;;;;;;;4.10;2.08;;;;;;;;;;5111412;28;20024;-65
2023/04/03 06:26:40;;;;;;;7.35;2.28;;;;;;;;;;5110788;28;20480;-73
2023/04/03 06:29:06;;;;;;;7.40;1.95;;;;;;;;;;5111375;28;20107;-74
2023/04/03 06:31:31;;;;;;;3.88;1.75;;;;;;;;;;5111175;28;20418;-77
2023/04/03 06:33:57;;;;;;;5.30;2.33;;;;;;;;;;5111219;28;20075;-68
2023/04/03 06:36:22;;;;;;;4.20;1.60;;;;;;;;;;5111167;28;20031;-77
2023/04/03 06:38:48;;;;;;;5.50;2.00;;;;;;;;;;5111012;28;20031;-71
2023/04/03 06:41:14;;;;;;;6.68;2.00;;;;;;;;;;5110820;28;20027;-77
2023/04/03 06:43:40;;;;;;;5.00;1.60;;;;;;;;;;5111153;28;20034;-70
2023/04/03 06:46:06;;;;;;;5.25;1.67;;;;;;;;;;5110916;28;20050;-68
2023/04/03 06:48:31;;;;;;;8.23;2.10;;;;;;;;;;5110754;28;20030;-71
2023/04/03 06:50:57;;;;;;;4.53;1.52;;;;;;;;;;5110922;28;20424;-65
2023/04/03 06:53:22;;;;;;;3.83;1.45;;;;;;;;;;5111477;28;20055;-64
2023/04/03 06:55:48;;;;;;;4.38;1.65;;;;;;;;;;5114666;28;20046;-73
2023/04/03 06:58:15;;;;;;;4.13;1.60;;;;;;;;;;5114687;28;20053;-64
2023/04/03 07:00:41;;;;;;;3.22;1.70;;;;;;;;;;5114389;28;20038;-75
2023/04/03 07:03:06;;;;;;;3.33;1.30;;;;;;;;;;5114827;28;20424;-77
2023/04/03 07:05:32;;;;;;;6.05;2.38;;;;;;;;;;5114365;28;20047;-77
2023/04/03 07:07:57;;;;;;;3.95;1.45;;;;;;;;;;5114631;28;20060;-77
2023/04/03 07:10:23;;;;;;;6.53;2.13;;;;;;;;;;5114524;28;20537;-76
2023/04/03 07:12:48;;;;;;;4.38;1.80;;;;;;;;;;5114563;28;20030;-77
2023/04/03 07:15:14;;;;;;;4.10;1.40;;;;;;;;;;5111510;28;20122;-76
2023/04/03 07:17:40;;;;;;;4.20;1.30;;;;;;;;;;5114257;28;20061;-77
2023/04/03 07:20:07;;;;;;;5.88;1.70;;;;;;;;;;5115284;28;20119;-76
2023/04/03 07:22:32;;;;;;;4.18;1.30;;;;;;;;;;5115321;28;20805;-76
2023/04/03 07:24:58;;;;;;;3.38;1.58;;;;;;;;;;5114764;28;20077;-76
2023/04/03 07:27:25;;;;;;;9.73;2.22;;;;;;;;;;5114875;28;20024;-73
2023/04/03 07:29:50;;;;;;;4.22;1.50;;;;;;;;;;5115044;28;20481;-76
2023/04/03 07:32:16;;;;;;;5.15;1.67;;;;;;;;;;5114503;28;20027;-77
2023/04/03 07:34:41;;;;;;;4.10;1.58;;;;;;;;;;5115208;28;20135;-71
2023/04/03 07:37:08;;;;;;;4.82;1.75;;;;;;;;;;5114989;28;20027;-74
2023/04/03 07:39:34;;;;;;;3.47;1.67;;;;;;;;;;5115189;28;20039;-81
2023/04/03 07:42:00;;;;;;;3.47;1.50;;;;;;;;;;5115307;28;20031;-69
2023/04/03 07:44:26;;;;;;;7.63;2.88;;;;;;;;;;5114900;28;20028;-75
2023/04/03 07:46:51;;;;;;;6.72;1.85;;;;;;;;;;5115005;28;20052;-76
2023/04/03 07:49:22;;;;;;;7.97;1.50;;;;;;;;;;5114949;28;20480;-69
2023/04/03 07:51:48;;;;;;;6.90;1.95;;;;;;;;;;5114618;28;20020;-75
2023/04/03 07:54:14;;;;;;;5.18;1.70;;;;;;;;;;5114986;28;20111;-76
2023/04/03 07:56:40;;;;;;;5.53;2.25;;;;;;;;;;5114904;28;20030;-70
2023/04/03 07:59:06;;;;;;;4.55;1.98;;;;;;;;;;5096686;28;20020;-76
2023/04/03 08:01:33;;;;;;;4.53;1.52;;;;;;;;;;5094485;28;20024;-73
2023/04/03 08:03:59;;;;;;;5.88;1.90;;;;;;;;;;5093836;28;20083;-76
2023/04/03 08:06:25;;;;;;;4.60;1.45;;;;;;;;;;5093923;28;21019;-74
2023/04/03 08:08:50;;;;;;;6.90;3.28;;;;;;;;;;5103910;28;20072;-74
2023/04/03 08:11:15;;;;;;;3.15;1.38;;;;;;;;;;5114486;28;20031;-72
2023/04/03 08:13:42;;;;;;;5.40;1.40;;;;;;;;;;5114576;28;20028;-73
2023/04/03 08:16:11;;;;;;;2.72;1.45;;;;;;;;;;5114670;28;20035;-70
2023/04/03 08:18:36;;;;;;;4.63;1.88;;;;;;;;;;5114606;28;20028;-67
2023/04/03 08:21:05;;;;;;;12.35;3.40;;;;;;;;;;5114217;28;20023;-65
2023/04/03 08:23:31;;;;;;;16.42;4.65;;;;;;;;;;5114414;28;20090;-69
2023/04/03 08:25:56;;;;;;;5.18;2.58;;;;;;;;;;5114307;28;20470;-73
2023/04/03 08:28:21;;;;;;;11.20;2.28;;;;;;;;;;5114020;28;20039;-69
2023/04/03 08:30:47;;;;;;;5.50;1.60;;;;;;;;;;5114192;27;20024;-70
2023/04/03 08:33:12;;;;;;;8.35;2.20;;;;;;;;;;5114026;28;20024;-73
2023/04/03 08:35:40;;;;;;;6.80;1.83;;;;;;;;;;5113844;28;20028;-76
2023/04/03 08:38:05;;;;;;;9.45;2.45;;;;;;;;;;5114013;28;20064;-74
2023/04/03 08:40:31;;;;;;;7.15;2.28;;;;;;;;;;5114048;28;20534;-74
2023/04/03 08:42:56;;;;;;;6.38;2.03;;;;;;;;;;5113915;28;20032;-74
2023/04/03 08:45:47;;;;;;;3.33;1.55;;;;;;;;;;5113812;28;20462;-73
2023/04/03 08:48:31;;;;;;;5.18;2.05;;;;;;;;;;5113623;27;20046;-80
2023/04/03 08:51:04;;;;;;;3.83;1.50;;;;;;;;;;5113697;28;20163;-78
2023/04/03 08:53:33;;;;;;;6.10;2.03;;;;;;;;;;5113831;28;20027;-78
2023/04/03 08:56:06;;;;;;;8.35;1.83;;;;;;;;;;5113840;28;20092;-78
2023/04/03 08:58:43;;;;;;;7.55;2.00;;;;;;;;;;5113591;28;20028;-77
2023/04/03 09:01:26;;;;;;;4.47;1.85;;;;;;;;;;5113620;28;20023;-75
2023/04/03 09:03:51;;;;;;;6.45;2.10;;;;;;;;;;5113571;28;20394;-79
2023/04/03 09:06:23;;;;;;;9.93;2.28;;;;;;;;;;5113224;28;20024;-78
2023/04/03 09:09:35;;;;;;;6.28;2.20;;;;;;;;;;5113175;28;20206;-67
2023/04/03 09:12:26;;;;;;;9.52;3.10;;;;;;;;;;5112363;28;20036;-72
2023/04/03 09:14:57;;;;;;;5.88;2.03;;;;;;;;;;5113768;28;20470;-70
2023/04/03 09:17:43;;;;;;;4.32;1.85;;;;;;;;;;5113032;28;20439;-69
2023/04/03 09:20:33;;;;;;;4.53;1.67;;;;;;;;;;5113546;28;20027;-79
2023/04/03 09:22:59;;;;;;;4.10;1.65;;;;;;;;;;5113211;28;20474;-76
2023/04/03 09:25:29;;;;;;;4.38;1.88;;;;;;;;;;5112975;28;20032;-77
2023/04/03 09:27:55;;;;;;;5.43;1.95;;;;;;;;;;5113195;28;20551;-75
2023/04/03 09:30:24;;;;;;;4.18;1.70;;;;;;;;;;5113095;28;20145;-78
2023/04/03 09:32:55;;;;;;;8.70;2.03;;;;;;;;;;5113217;28;20024;-80
2023/04/03 09:35:32;;;;;;;6.07;1.83;;;;;;;;;;5112334;28;20088;-78
2023/04/03 09:38:00;;;;;;;8.50;1.73;;;;;;;;;;5112427;28;20020;-78
2023/04/03 09:40:26;;;;;;;2.40;1.20;;;;;;;;;;5109961;28;20057;-81
2023/04/03 09:42:53;;;;;;;4.97;1.58;;;;;;;;;;5112830;28;20024;-76
2023/04/03 09:45:46;;;;;;;8.45;1.80;;;;;;;;;;5112195;28;20455;-80
2023/04/03 09:48:14;;;;;;;6.88;1.40;;;;;;;;;;5108504;28;20036;-80
2023/04/03 09:51:01;;;;;;;6.32;1.70;;;;;;;;;;5112203;28;20027;-78
2023/04/03 09:53:35;;;;;;;17.35;5.85;;;;;;;;;;5110244;28;20412;-81
2023/04/03 09:56:03;;;;;;;9.38;2.35;;;;;;;;;;5110299;28;20092;-75
2023/04/03 09:58:33;;;;;;;8.05;3.72;;;;;;;;;;5099280;28;20107;-76
2023/04/03 10:01:02;;;;;;;12.00;4.72;;;;;;;;;;5100410;28;20128;-79
2023/04/03 10:03:32;;;;;;;7.32;2.40;;;;;;;;;;5112293;28;20031;-80
2023/04/03 10:05:58;;;;;;;10.82;2.58;;;;;;;;;;5112408;28;20132;-80
2023/04/03 10:08:30;;;;;;;6.63;1.67;;;;;;;;;;5112531;28;20030;-78
2023/04/03 10:11:06;;;;;;;4.25;1.92;;;;;;;;;;5112576;28;20020;-80
2023/04/03 10:13:32;;;;;;;5.90;1.95;;;;;;;;;;5112523;28;20450;-69
2023/04/03 10:16:03;;;;;;;4.57;1.55;;;;;;;;;;5112706;28;20028;-78
2023/04/03 10:19:06;;;;;;;5.82;1.48;;;;;;;;;;5112383;28;20024;-68
2023/04/03 10:21:44;;;;;;;3.35;1.52;;;;;;;;;;5112602;28;20115;-78
2023/04/03 10:24:12;;;;;;;3.45;1.40;;;;;;;;;;5112322;28;20489;-78
2023/04/03 10:26:45;;;;;;;4.53;1.50;;;;;;;;;;5111998;28;20119;-79
2023/04/03 10:29:20;;;;;;;4.10;1.40;;;;;;;;;;5116267;28;20474;-79
2023/04/03 10:31:52;;;;;;;2.22;1.27;;;;;;;;;;5116498;28;20036;-79
2023/04/03 10:34:24;;;;;;;3.03;1.20;;;;;;;;;;5116700;28;20038;-76
2023/04/03 10:36:53;;;;;;;4.68;2.33;;;;;;;;;;5116332;28;20023;-78
2023/04/03 10:39:47;;;;;;;4.43;1.40;;;;;;;;;;5114931;28;20427;-78
2023/04/03 10:42:27;;;;;;;6.53;1.70;;;;;;;;;;5116423;28;20028;-80
2023/04/03 10:44:59;;;;;;;6.18;1.92;;;;;;;;;;5115074;28;20015;-77
2023/04/03 10:47:48;;;;;;;4.55;1.60;;;;;;;;;;5116132;28;20080;-78
2023/04/03 10:50:39;;;;;;;4.40;1.60;;;;;;;;;;5116305;28;20027;-75
2023/04/03 10:53:10;;;;;;;5.80;1.95;;;;;;;;;;5115929;28;20168;-77
2023/04/03 10:55:57;;;;;;;7.93;1.80;;;;;;;;;;5116129;28;20118;-79
2023/04/03 10:58:31;;;;;;;5.03;1.50;;;;;;;;;;5116010;28;20034;-77
2023/04/03 11:01:08;;;;;;;4.85;1.80;;;;;;;;;;5114501;28;20036;-79
2023/04/03 11:03:45;;;;;;;3.45;1.75;;;;;;;;;;5115519;28;20106;-73
2023/04/03 11:06:14;;;;;;;11.40;5.25;;;;;;;;;;5116065;28;20028;-79
2023/04/03 11:08:48;;;;;;;12.40;4.20;;;;;;;;;;5115805;28;20027;-76
2023/04/03 11:11:22;;;;;;;4.43;1.85;;;;;;;;;;5115453;27;20114;-77
2023/04/03 11:14:08;;;;;;;4.20;1.52;;;;;;;;;;5115677;28;20036;-79
2023/04/03 11:16:39;;;;;;;9.23;2.08;;;;;;;;;;5115199;28;20028;-75
2023/04/03 11:19:21;;;;;;;7.05;2.60;;;;;;;;;;5115323;28;20107;-68
2023/04/03 11:21:57;;;;;;;8.60;2.40;;;;;;;;;;5115573;28;20059;-74
2023/04/03 11:24:26;;;;;;;9.18;3.10;;;;;;;;;;5115445;28;20035;-65
2023/04/03 11:26:55;;;;;;;10.90;3.25;;;;;;;;;;5108656;28;20063;-70
2023/04/03 11:29:29;;;;;;;7.18;3.00;;;;;;;;;;5094708;28;20374;-76
2023/04/03 11:32:15;;;;;;;7.95;2.38;;;;;;;;;;5095134;28;20382;-79
2023/04/03 11:34:43;;;;;;;5.45;2.20;;;;;;;;;;5095102;28;20023;-70
2023/04/03 11:37:26;;;;;;;4.00;2.10;;;;;;;;;;5094837;28;20056;-75
2023/04/03 11:40:00;;;;;;;4.20;2.00;;;;;;;;;;5094026;28;20032;-69
2023/04/03 11:42:40;;;;;;;5.55;1.80;;;;;;;;;;5094874;28;20367;-73
2023/04/03 11:45:26;;;;;;;5.40;1.40;;;;;;;;;;5094304;28;20059;-76
2023/04/03 11:47:54;;;;;;;6.45;2.47;;;;;;;;;;5094637;28;20332;-78
2023/04/03 11:50:34;;;;;;;7.30;2.10;;;;;;;;;;5094781;28;20116;-76
2023/04/03 11:53:00;;;;;;;;;;;;;;;;;;5099507;28;20502;-79
2023/04/03 11:55:31;;;;;;;5.47;1.55;;;;;;;;;;5114941;28;19962;-76
2023/04/03 11:57:57;;;;;;;5.90;1.63;;;;;;;;;;5114837;28;20055;-78
2023/04/03 12:00:46;;;;;;;6.65;1.60;;;;;;;;;;5114717;28;20062;-78
2023/04/03 12:03:26;;;;;;;15.50;2.85;;;;;;;;;;5114226;28;20059;-72
2023/04/03 12:06:04;;;;;;;12.55;2.38;;;;;;;;;;5113257;28;20051;-76
2023/04/03 12:08:32;;;;;;;17.17;7.05;;;;;;;;;;5114650;28;20023;-77
2023/04/03 12:11:10;;;;;;;6.90;1.90;;;;;;;;;;5114672;28;20027;-77
2023/04/03 12:13:55;;;;;;;5.18;2.33;;;;;;;;;;5114153;28;20059;-76
2023/04/03 12:16:41;;;;;;;15.00;3.13;;;;;;;;;;5114713;28;20406;-75
2023/04/03 12:19:33;;;;;;;11.45;3.78;;;;;;;;;;5114462;28;20034;-73
2023/04/03 12:21:59;;;;;;;8.10;2.20;;;;;;;;;;5114367;28;20023;-69
2023/04/03 12:24:33;;;;;;;7.20;2.03;;;;;;;;;;5114413;28;20069;-71
2023/04/03 12:27:26;;;;;;;7.93;2.47;;;;;;;;;;5114272;28;20039;-77
2023/04/03 12:30:03;;;;;;;10.32;3.20;;;;;;;;;;5114200;28;20062;-71
2023/04/03 12:32:51;;;;;;;9.32;2.35;;;;;;;;;;5113980;28;20028;-65
2023/04/03 12:35:38;;;;;;;6.32;2.78;;;;;;;;;;5113875;28;20030;-74
2023/04/03 12:38:33;;;;;;;5.82;2.58;;;;;;;;;;5114161;28;20474;-69
2023/04/03 12:41:21;;;;;;;2.80;1.40;;;;;;;;;;5113979;28;20027;-77
2023/04/03 12:44:27;;;;;;;4.15;2.03;;;;;;;;;;5113538;28;20611;-70
2023/04/03 12:46:53;;;;;;;4.93;1.70;;;;;;;;;;5112982;28;20039;-68
2023/04/03 12:49:31;;;;;;;3.85;1.67;;;;;;;;;;5113593;28;20054;-65
2023/04/03 12:51:56;;;;;;;6.85;1.88;;;;;;;;;;5113650;28;20106;-68
2023/04/03 12:54:39;;;;;;;2.55;1.20;;;;;;;;;;5113722;28;20099;-77
2023/04/03 12:57:20;;;;;;;3.15;1.40;;;;;;;;;;5113339;28;20024;-65
2023/04/03 12:59:46;;;;;;;;;;;;;;;;;;5114379;28;20024;-69
2023/04/03 13:02:33;;;;;;;5.53;1.88;;;;;;;;;;5113755;28;19912;-69
2023/04/03 13:05:06;;;;;;;6.50;2.15;;;;;;;;;;5113339;28;20075;-77
2023/04/03 13:07:37;;;;;;;7.47;2.40;;;;;;;;;;5113664;28;20480;-78
2023/04/03 13:10:08;;;;;;;5.68;2.25;;;;;;;;;;5113515;28;20485;-75
2023/04/03 13:12:55;;;;;;;5.18;2.47;;;;;;;;;;5113239;28;20092;-72
2023/04/03 13:15:41;;;;;;;7.07;2.80;;;;;;;;;;5109491;28;20425;-76
2023/04/03 13:18:25;;;;;;;5.40;2.13;;;;;;;;;;5113528;28;20478;-68
2023/04/03 13:20:51;;;;;;;4.50;1.65;;;;;;;;;;5113328;28;20031;-74
2023/04/03 13:23:20;;;;;;;4.57;1.77;;;;;;;;;;5113202;28;20045;-70
2023/04/03 13:25:47;;;;;;;6.00;2.63;;;;;;;;;;5113012;28;20458;-74
2023/04/03 13:28:17;;;;;;;6.50;3.08;;;;;;;;;;5113284;28;20037;-69
2023/04/03 13:31:13;;;;;;;5.00;2.20;;;;;;;;;;5113341;28;20094;-64
2023/04/03 13:34:02;;;;;;;3.08;1.63;;;;;;;;;;5112927;28;20057;-74
2023/04/03 13:36:33;;;;;;;4.88;1.92;;;;;;;;;;5112723;28;20050;-68
2023/04/03 13:39:22;;;;;;;3.92;1.80;;;;;;;;;;5112780;28;20151;-69
2023/04/03 13:41:51;;;;;;;10.70;3.15;;;;;;;;;;5105865;28;20039;-73
2023/04/03 13:44:22;;;;;;;4.72;1.80;;;;;;;;;;5113088;28;20055;-74
2023/04/03 13:46:52;;;;;;;4.72;1.98;;;;;;;;;;5112782;28;20111;-70
2023/04/03 13:49:45;;;;;;;13.10;5.45;;;;;;;;;;5112747;28;20048;-72
2023/04/03 13:52:35;;;;;;;13.43;5.47;;;;;;;;;;5112823;28;20053;-76
2023/04/03 13:55:22;;;;;;;10.02;3.40;;;;;;;;;;5112605;28;20027;-63
2023/04/03 13:57:57;;;;;;;10.52;4.88;;;;;;;;;;5105281;28;20046;-63
2023/04/03 14:00:50;;;;;;;10.90;3.85;;;;;;;;;;5092522;28;20028;-63
2023/04/03 14:03:25;;;;;;;14.73;6.95;;;;;;;;;;5092036;28;20016;-65
2023/04/03 14:05:51;;;;;;;9.95;3.53;;;;;;;;;;5092283;28;20406;-66
2023/04/03 14:08:18;;;;;;;5.10;3.30;;;;;;;;;;5097335;28;20020;-64
2023/04/03 14:10:43;;;;;;;10.88;4.10;;;;;;;;;;5112339;28;20027;-65
2023/04/03 14:13:15;;;;;;;6.07;3.40;;;;;;;;;;5112529;28;20112;-68
2023/04/03 14:15:42;;;;;;;6.80;2.67;;;;;;;;;;5112474;28;20034;-65
2023/04/03 14:18:13;;;;;;;8.15;4.35;;;;;;;;;;5112721;28;20046;-67
2023/04/03 14:20:39;;;;;;;15.70;8.80;;;;;;;;;;5112563;28;20431;-63
2023/04/03 14:23:04;;;;;;;11.43;6.07;;;;;;;;;;5112350;28;20016;-68
2023/04/03 14:25:30;;;;;;;13.38;6.30;;;;;;;;;;5111480;28;20448;-64
2023/04/03 14:27:56;;;;;;;21.85;8.23;;;;;;;;;;5112593;28;20024;-63
2023/04/03 14:30:26;;;;;;;17.77;6.55;;;;;;;;;;5112502;28;20093;-62
2023/04/03 14:32:51;;;;;;;;;;;;;;;;;;5112645;28;20040;-76
2023/04/03 14:35:18;;;;;;;11.32;4.05;;;;;;;;;;5112312;28;19918;-74
2023/04/03 14:37:45;;;;;;;6.18;2.60;;;;;;;;;;5112260;28;20039;-75
2023/04/03 14:40:17;;;;;;;7.95;3.90;;;;;;;;;;5112378;28;20031;-77
2023/04/03 14:42:43;;;;;;;9.40;5.00;;;;;;;;;;5112172;28;20035;-72
2023/04/03 14:45:11;;;;;;;9.38;3.50;;;;;;;;;;5111977;28;20040;-74
2023/04/03 14:47:51;;;;;;;10.70;4.40;;;;;;;;;;5112321;28;20536;-70
2023/04/03 14:50:20;;;;;;;6.50;3.08;;;;;;;;;;5112425;28;20031;-76
2023/04/03 14:52:47;;;;;;;13.68;3.38;;;;;;;;;;5112036;28;20032;-69
2023/04/03 14:55:17;;;;;;;8.40;3.30;;;;;;;;;;5112526;28;20032;-67